createdAt,value
2023-04-08T00:00:09.639Z,3.17
2023-04-08T00:02:38.810Z,3.05
2023-04-08T00:05:09.031Z,3.45
2023-04-08T00:07:39.716Z,3.25
2023-04-08T00:10:09.967Z,3.25
2023-04-08T00:12:38.958Z,3.20
2023-04-08T00:15:08.778Z,2.90
2023-04-08T00:17:37.927Z,3.63
2023-04-08T00:20:08.139Z,3.17
2023-04-08T00:22:39.176Z,3.42
2023-04-08T00:25:10.352Z,2.90
2023-04-08T00:27:39.412Z,3.47
2023-04-08T00:30:09.594Z,3.35
2023-04-08T00:32:38.968Z,3.30
2023-04-08T00:35:08.624Z,3.20
2023-04-08T00:37:39.235Z,3.58
2023-04-08T00:40:09.273Z,3.60
2023-04-08T00:42:38.255Z,3.30
2023-04-08T00:45:08.248Z,3.83
2023-04-08T00:47:38.073Z,3.30
2023-04-08T00:50:11.502Z,3.40
2023-04-08T00:52:42.113Z,3.80
2023-04-08T00:55:11.337Z,3.42
2023-04-08T00:57:40.395Z,3.28
2023-04-08T01:00:10.888Z,3.17
2023-04-08T01:02:47.632Z,3.92
2023-04-08T01:05:27.238Z,3.33
2023-04-08T01:08:00.528Z,3.50
2023-04-08T01:10:32.541Z,3.50
2023-04-08T01:13:05.038Z,3.33
2023-04-08T01:15:38.025Z,3.45
2023-04-08T01:18:10.425Z,3.28
2023-04-08T01:20:41.647Z,3.03
2023-04-08T01:23:19.930Z,3.40
2023-04-08T01:25:54.711Z,3.10
2023-04-08T01:28:26.440Z,3.40
2023-04-08T01:30:58.704Z,3.25
2023-04-08T01:33:30.683Z,3.05
2023-04-08T01:36:01.910Z,3.00
2023-04-08T01:38:32.851Z,2.80
2023-04-08T01:41:05.113Z,3.30
2023-04-08T01:43:36.786Z,3.13
2023-04-08T01:46:07.068Z,3.25
2023-04-08T01:48:36.674Z,3.35
2023-04-08T01:51:06.835Z,2.90
2023-04-08T01:53:36.016Z,3.10
2023-04-08T01:56:08.642Z,3.33
2023-04-08T01:58:42.138Z,3.50
2023-04-08T02:01:14.933Z,3.10
2023-04-08T02:03:45.729Z,3.65
2023-04-08T02:06:15.156Z,3.42
2023-04-08T02:08:44.208Z,3.03
2023-04-08T02:11:14.881Z,3.58
2023-04-08T02:13:43.821Z,3.45
2023-04-08T02:16:19.850Z,3.38
2023-04-08T02:21:28.956Z,3.20
2023-04-08T02:24:02.696Z,3.05
2023-04-08T02:26:37.417Z,3.70
2023-04-08T02:29:07.527Z,3.38
2023-04-08T02:31:37.247Z,3.58
2023-04-08T02:34:09.506Z,3.90
2023-04-08T02:36:39.898Z,4.15
2023-04-08T02:39:09.062Z,4.03
2023-04-08T02:41:39.683Z,4.55
2023-04-08T02:44:08.722Z,3.95
2023-04-08T02:46:37.806Z,4.40
2023-04-08T02:49:07.101Z,4.03
2023-04-08T02:51:36.162Z,4.10
2023-04-08T02:54:05.218Z,4.30
2023-04-08T02:56:34.302Z,3.80
2023-04-08T02:59:04.990Z,4.10
2023-04-08T03:01:34.062Z,4.07
2023-04-08T03:04:03.328Z,3.75
2023-04-08T03:06:33.079Z,3.92
2023-04-08T03:09:02.143Z,3.80
2023-04-08T03:11:31.317Z,4.00
2023-04-08T03:14:00.688Z,3.67
2023-04-08T03:16:31.452Z,3.80
2023-04-08T03:19:00.491Z,3.90
2023-04-08T03:21:32.502Z,3.40
2023-04-08T03:24:01.667Z,3.85
2023-04-08T03:26:30.685Z,3.50
2023-04-08T03:28:59.883Z,3.80
2023-04-08T03:31:30.694Z,3.28
2023-04-08T03:33:59.697Z,3.20
2023-04-08T03:36:28.921Z,3.40
2023-04-08T03:38:57.886Z,3.20
2023-04-08T03:41:26.891Z,3.10
2023-04-08T03:43:55.965Z,3.25
2023-04-08T03:46:24.986Z,3.53
2023-04-08T03:48:55.659Z,3.55
2023-04-08T03:51:24.800Z,3.22
2023-04-08T03:53:53.782Z,3.42
2023-04-08T03:56:22.744Z,3.53
2023-04-08T03:58:52.161Z,3.20
2023-04-08T04:01:21.300Z,3.30
2023-04-08T04:03:50.488Z,3.55
2023-04-08T04:06:21.492Z,3.33
2023-04-08T04:09:02.770Z,3.65
2023-04-08T04:11:31.869Z,3.38
2023-04-08T04:14:00.909Z,3.25
2023-04-08T04:16:32.226Z,3.58
2023-04-08T04:19:02.044Z,3.10
2023-04-08T04:21:32.743Z,3.58
2023-04-08T04:24:01.764Z,3.42
2023-04-08T04:26:30.777Z,3.58
2023-04-08T04:28:59.772Z,3.30
2023-04-08T04:31:29.069Z,3.38
2023-04-08T04:33:58.281Z,3.05
2023-04-08T04:36:27.315Z,3.20
2023-04-08T04:38:57.941Z,3.40
2023-04-08T04:41:28.141Z,3.33
2023-04-08T04:43:57.204Z,3.47
2023-04-08T04:46:26.300Z,3.38
2023-04-08T04:48:55.328Z,3.30
2023-04-08T04:51:24.438Z,3.58
2023-04-08T04:53:53.673Z,3.40
2023-04-08T04:56:24.311Z,3.40
2023-04-08T04:58:53.304Z,3.85
2023-04-08T05:01:22.411Z,3.30
2023-04-08T05:03:51.814Z,3.30
2023-04-08T05:06:20.876Z,3.58
2023-04-08T05:08:50.087Z,3.58
2023-04-08T05:11:19.374Z,3.38
2023-04-08T05:13:50.004Z,3.60
2023-04-08T05:16:19.019Z,3.38
2023-04-08T05:18:48.076Z,3.13
2023-04-08T05:21:17.205Z,3.05
2023-04-08T05:23:49.179Z,3.00
2023-04-08T05:26:22.578Z,3.20
2023-04-08T05:28:53.417Z,3.20
2023-04-08T05:31:22.782Z,3.30
2023-04-08T05:33:51.892Z,3.65
2023-04-08T05:36:21.315Z,3.30
2023-04-08T05:38:50.927Z,3.65
2023-04-08T05:41:20.032Z,3.90
2023-04-08T05:43:49.458Z,3.70
2023-04-08T05:46:20.226Z,4.00
2023-04-08T05:48:49.440Z,3.60
2023-04-08T05:51:18.927Z,3.50
2023-04-08T05:53:48.259Z,3.60
2023-04-08T05:56:17.714Z,3.75
2023-04-08T05:58:47.863Z,4.13
2023-04-08T06:01:19.426Z,4.03
2023-04-08T06:03:49.268Z,4.07
2023-04-08T06:06:18.434Z,3.92
2023-04-08T06:08:48.633Z,3.80
2023-04-08T06:11:17.833Z,3.80
2023-04-08T06:13:46.926Z,4.35
2023-04-08T06:16:20.928Z,4.00
2023-04-08T06:18:50.779Z,3.75
2023-04-08T06:21:19.949Z,3.75
2023-04-08T06:23:48.881Z,4.07
2023-04-08T06:26:17.816Z,3.67
2023-04-08T06:28:49.715Z,3.83
2023-04-08T06:31:20.628Z,3.70
2023-04-08T06:33:49.589Z,3.63
2023-04-08T06:36:18.604Z,3.85
2023-04-08T06:38:47.580Z,3.88
2023-04-08T06:41:16.706Z,4.32
2023-04-08T06:43:45.680Z,3.70
2023-04-08T06:46:14.821Z,4.30
2023-04-08T06:48:45.796Z,4.00
2023-04-08T06:51:14.786Z,4.00
2023-04-08T06:53:43.754Z,4.10
2023-04-08T06:56:12.764Z,4.05
2023-04-08T06:58:41.768Z,4.30
2023-04-08T07:01:10.854Z,4.20
2023-04-08T07:03:39.962Z,4.00
2023-04-08T07:06:10.714Z,4.72
2023-04-08T07:08:39.692Z,4.10
2023-04-08T07:11:09.063Z,3.83
2023-04-08T07:13:38.014Z,4.30
2023-04-08T07:16:07.999Z,4.15
2023-04-08T07:18:37.463Z,4.22
2023-04-08T07:21:06.572Z,3.72
2023-04-08T07:23:37.581Z,5.18
2023-04-08T07:26:06.670Z,4.53
2023-04-08T07:28:35.685Z,4.63
2023-04-08T07:31:12.548Z,4.57
2023-04-08T07:33:41.676Z,4.38
2023-04-08T07:36:12.327Z,4.22
2023-04-08T07:38:43.028Z,4.78
2023-04-08T07:41:12.084Z,3.92
2023-04-08T07:43:41.053Z,4.20
2023-04-08T07:46:10.764Z,4.03
2023-04-08T07:48:39.877Z,4.20
2023-04-08T07:51:11.457Z,4.13
2023-04-08T07:53:42.716Z,4.00
2023-04-08T07:56:15.800Z,3.90
2023-04-08T07:58:45.193Z,4.68
2023-04-08T08:01:19.684Z,4.97
2023-04-08T08:03:49.018Z,4.50
2023-04-08T08:06:18.508Z,4.70
2023-04-08T08:08:49.155Z,5.03
2023-04-08T08:11:18.144Z,5.00
2023-04-08T08:13:47.098Z,4.40
2023-04-08T08:16:16.296Z,4.53
2023-04-08T08:18:45.368Z,4.47
2023-04-08T08:21:14.687Z,4.30
2023-04-08T08:23:43.692Z,4.10
2023-04-08T08:26:14.316Z,4.15
2023-04-08T08:28:43.912Z,3.95
2023-04-08T08:31:13.249Z,3.88
2023-04-08T08:33:42.216Z,4.10
2023-04-08T08:36:11.257Z,3.88
2023-04-08T08:38:40.293Z,4.20
2023-04-08T08:41:09.284Z,4.15
2023-04-08T08:43:40.706Z,4.10
2023-04-08T08:46:15.051Z,4.28
2023-04-08T08:48:44.344Z,4.05
2023-04-08T08:51:14.582Z,4.43
2023-04-08T08:53:46.574Z,3.63
2023-04-08T08:56:18.828Z,4.30
2023-04-08T08:58:50.023Z,4.15
2023-04-08T09:01:35.971Z,3.85
2023-04-08T09:04:19.253Z,4.35
2023-04-08T09:06:50.874Z,4.13
2023-04-08T09:09:20.043Z,4.35
2023-04-08T09:11:49.172Z,4.10
2023-04-08T09:14:24.287Z,4.15
2023-04-08T09:16:53.807Z,3.60
2023-04-08T09:19:22.909Z,3.88
2023-04-08T09:22:07.796Z,4.15
2023-04-08T09:24:37.892Z,4.13
2023-04-08T09:27:07.422Z,4.20
2023-04-08T09:29:39.840Z,4.32
2023-04-08T09:32:09.143Z,3.80
2023-04-08T09:34:38.410Z,4.50
2023-04-08T09:37:07.989Z,4.07
2023-04-08T09:39:37.064Z,4.38
2023-04-08T09:42:11.868Z,4.30
2023-04-08T09:44:47.584Z,4.32
2023-04-08T09:47:24.958Z,4.32
2023-04-08T09:49:59.275Z,4.32
2023-04-08T09:52:34.861Z,4.43
2023-04-08T09:55:06.125Z,4.50
2023-04-08T09:57:42.609Z,4.32
2023-04-08T10:00:15.704Z,4.70
2023-04-08T10:02:53.250Z,4.53
2023-04-08T10:05:23.367Z,4.10
2023-04-08T10:07:52.768Z,4.20
2023-04-08T10:10:22.277Z,4.55
2023-04-08T10:12:51.827Z,4.40
2023-04-08T10:15:29.934Z,4.15
2023-04-08T10:18:34.216Z,4.65
2023-04-08T10:21:03.927Z,4.03
2023-04-08T10:23:59.914Z,4.28
2023-04-08T10:26:40.309Z,4.45
2023-04-08T10:29:34.005Z,4.05
2023-04-08T10:32:04.800Z,4.78
2023-04-08T10:34:33.914Z,4.68
2023-04-08T10:37:03.155Z,4.70
2023-04-08T10:39:32.811Z,4.35
2023-04-08T10:42:03.540Z,4.00
2023-04-08T10:44:32.563Z,4.60
2023-04-08T10:47:02.064Z,4.10
2023-04-08T10:49:42.536Z,4.18
2023-04-08T10:52:11.742Z,4.13
2023-04-08T10:54:47.842Z,4.75
2023-04-08T10:57:17.441Z,4.68
2023-04-08T10:59:46.439Z,4.30
2023-04-08T11:02:17.378Z,4.03
2023-04-08T11:04:49.173Z,3.72
2023-04-08T11:07:21.199Z,4.47
2023-04-08T11:09:50.600Z,3.53
2023-04-08T11:12:21.206Z,3.95
2023-04-08T11:14:52.472Z,4.72
2023-04-08T11:17:21.670Z,4.07
2023-04-08T11:19:53.589Z,4.30
2023-04-08T11:22:23.138Z,4.00
2023-04-08T11:24:52.450Z,4.43
2023-04-08T11:27:23.968Z,4.18
2023-04-08T11:29:53.545Z,4.10
2023-04-08T11:32:23.158Z,3.92
2023-04-08T11:34:55.081Z,4.13
2023-04-08T11:37:28.517Z,3.90
2023-04-08T11:39:58.663Z,3.88
2023-04-08T11:42:32.158Z,3.70
2023-04-08T11:45:01.190Z,5.22
2023-04-08T11:47:34.289Z,3.83
2023-04-08T11:50:05.306Z,3.60
2023-04-08T11:52:47.954Z,4.22
2023-04-08T11:55:24.994Z,4.30
2023-04-08T11:57:55.193Z,4.00
2023-04-08T12:00:25.327Z,3.58
2023-04-08T12:02:54.336Z,4.05
2023-04-08T12:05:25.100Z,3.78
2023-04-08T12:07:54.036Z,3.72
2023-04-08T12:10:23.224Z,4.32
2023-04-08T12:12:52.241Z,3.72
2023-04-08T12:15:21.511Z,3.80
2023-04-08T12:17:50.621Z,3.80
2023-04-08T12:20:19.964Z,4.00
2023-04-08T12:22:50.612Z,4.15
2023-04-08T12:25:19.608Z,3.92
2023-04-08T12:27:48.620Z,4.07
2023-04-08T12:30:17.628Z,4.00
2023-04-08T12:32:48.452Z,3.92
2023-04-08T12:35:17.464Z,3.83
2023-04-08T12:37:46.595Z,4.50
2023-04-08T12:40:17.535Z,4.15
2023-04-08T12:42:46.528Z,4.05
2023-04-08T12:45:15.938Z,3.92
2023-04-08T12:47:45.041Z,4.35
2023-04-08T12:50:17.118Z,4.22
2023-04-08T12:52:46.203Z,3.95
2023-04-08T12:55:17.225Z,3.90
2023-04-08T12:57:46.241Z,4.43
2023-04-08T13:00:16.179Z,4.82
2023-04-08T13:02:45.232Z,4.25
2023-04-08T13:05:14.599Z,3.80
2023-04-08T13:07:43.567Z,4.30
2023-04-08T13:10:12.818Z,4.30
2023-04-08T13:12:43.445Z,4.10
2023-04-08T13:15:13.023Z,3.90
2023-04-08T13:17:42.996Z,4.00
2023-04-08T13:20:12.689Z,3.88
2023-04-08T13:22:42.300Z,4.80
2023-04-08T13:25:11.749Z,4.40
2023-04-08T13:27:40.763Z,4.22
2023-04-08T13:30:13.064Z,3.97
2023-04-08T13:32:42.186Z,4.18
2023-04-08T13:35:11.485Z,4.32
2023-04-08T13:37:40.542Z,4.55
2023-04-08T13:40:10.699Z,4.32
2023-04-08T13:42:40.045Z,4.55
2023-04-08T13:45:11.962Z,4.28
2023-04-08T13:47:41.091Z,4.40
2023-04-08T13:50:10.987Z,5.43
2023-04-08T13:52:39.934Z,4.60
2023-04-08T13:55:09.624Z,5.00
2023-04-08T13:57:38.629Z,5.32
2023-04-08T14:00:08.857Z,5.47
2023-04-08T14:02:39.753Z,6.20
2023-04-08T14:05:09.473Z,5.53
2023-04-08T14:07:38.518Z,5.63
2023-04-08T14:10:09.072Z,6.05
2023-04-08T14:12:38.025Z,4.93
2023-04-08T14:15:08.068Z,5.10
2023-04-08T14:17:38.905Z,5.80
2023-04-08T14:20:09.027Z,5.43
2023-04-08T14:22:38.016Z,5.00
2023-04-08T14:25:07.582Z,4.80
2023-04-08T14:27:42.010Z,4.80
2023-04-08T14:30:16.853Z,5.28
2023-04-08T14:32:47.538Z,5.72
2023-04-08T14:35:16.846Z,5.30
2023-04-08T14:37:46.259Z,5.25
2023-04-08T14:40:15.415Z,5.57
2023-04-08T14:42:46.318Z,5.63
2023-04-08T14:45:15.294Z,5.38
2023-04-08T14:47:44.408Z,5.10
2023-04-08T14:50:15.239Z,5.63
2023-04-08T14:52:45.861Z,5.22
2023-04-08T14:55:14.811Z,4.85
2023-04-08T14:57:43.814Z,4.97
2023-04-08T15:00:14.022Z,4.70
2023-04-08T15:02:43.128Z,4.70
2023-04-08T15:05:14.048Z,4.50
2023-04-08T15:07:43.738Z,4.55
2023-04-08T15:10:13.073Z,4.50
2023-04-08T15:12:42.136Z,4.68
2023-04-08T15:15:11.900Z,4.88
2023-04-08T15:17:40.925Z,4.75
2023-04-08T15:20:11.320Z,5.90
2023-04-08T15:22:42.063Z,5.85
2023-04-08T15:25:11.743Z,6.63
2023-04-08T15:27:40.808Z,6.72
2023-04-08T15:30:11.890Z,6.13
2023-04-08T15:32:42.413Z,6.32
2023-04-08T15:35:12.110Z,5.97
2023-04-08T15:37:42.729Z,5.78
2023-04-08T15:40:12.261Z,6.50
2023-04-08T15:42:41.221Z,5.90
2023-04-08T15:45:11.533Z,6.43
2023-04-08T15:47:40.613Z,6.90
2023-04-08T15:50:10.914Z,6.18
2023-04-08T15:52:42.392Z,5.90
2023-04-08T15:55:12.065Z,5.93
2023-04-08T15:57:41.131Z,6.60
2023-04-08T16:00:11.938Z,5.80
2023-04-08T16:02:41.185Z,5.70
2023-04-08T16:05:10.791Z,5.85
2023-04-08T16:07:40.056Z,5.50
2023-04-08T16:10:11.288Z,6.30
2023-04-08T16:12:40.416Z,6.20
2023-04-08T16:15:10.013Z,6.20
2023-04-08T16:17:39.162Z,6.25
2023-04-08T16:20:09.201Z,6.75
2023-04-08T16:22:38.244Z,6.90
2023-04-08T16:25:10.218Z,6.32
2023-04-08T16:27:39.632Z,6.95
2023-04-08T16:30:09.886Z,6.10
2023-04-08T16:32:39.039Z,6.30
2023-04-08T16:35:08.967Z,5.78
2023-04-08T16:37:37.972Z,6.18
2023-04-08T16:40:08.187Z,5.57
2023-04-08T16:42:38.806Z,5.43
2023-04-08T16:45:08.956Z,6.28
2023-04-08T16:47:37.987Z,6.32
2023-04-08T16:50:08.623Z,5.72
2023-04-08T16:52:37.774Z,5.82
2023-04-08T16:55:07.525Z,6.88
2023-04-08T16:57:38.181Z,5.70
2023-04-08T17:00:08.434Z,5.80
2023-04-08T17:02:37.725Z,6.20
2023-04-08T17:05:07.578Z,5.50
2023-04-08T17:07:36.801Z,5.65
2023-04-08T17:10:06.465Z,5.75
2023-04-08T17:12:37.826Z,6.18
2023-04-08T17:15:08.134Z,5.55
2023-04-08T17:17:37.514Z,5.55
2023-04-08T17:20:08.325Z,6.18
2023-04-08T17:22:37.302Z,5.68
2023-04-08T17:25:07.468Z,5.82
2023-04-08T17:27:38.118Z,5.38
2023-04-08T17:30:10.084Z,5.70
2023-04-08T17:32:40.464Z,5.55
2023-04-08T17:35:10.074Z,5.00
2023-04-08T17:37:39.093Z,4.80
2023-04-08T17:40:09.393Z,5.38
2023-04-08T17:42:40.010Z,4.78
2023-04-08T17:45:10.423Z,4.90
2023-04-08T17:47:39.498Z,5.15
2023-04-08T17:50:11.736Z,5.32
2023-04-08T17:52:43.851Z,4.78
2023-04-08T17:55:12.888Z,4.88
2023-04-08T17:57:43.680Z,5.60
2023-04-08T18:00:13.355Z,4.75
2023-04-08T18:02:42.868Z,4.97
2023-04-08T18:05:12.524Z,4.93
2023-04-08T18:07:41.800Z,4.82
2023-04-08T18:10:11.337Z,4.60
2023-04-08T18:12:40.328Z,4.28
2023-04-08T18:15:12.088Z,4.75
2023-04-08T18:17:41.203Z,4.38
2023-04-08T18:20:11.231Z,4.13
2023-04-08T18:22:40.240Z,4.72
2023-04-08T18:25:09.900Z,4.30
2023-04-08T18:27:38.983Z,4.55
2023-04-08T18:30:10.869Z,4.80
2023-04-08T18:32:39.852Z,4.30
2023-04-08T18:35:09.618Z,4.05
2023-04-08T18:37:38.696Z,4.70
2023-04-08T18:40:09.448Z,5.63
2023-04-08T18:42:38.404Z,4.20
2023-04-08T18:45:09.782Z,4.78
2023-04-08T18:47:38.878Z,5.30
2023-04-08T18:50:09.202Z,4.90
2023-04-08T18:52:38.334Z,4.65
2023-04-08T18:55:07.967Z,4.47
2023-04-08T18:57:37.164Z,4.80
2023-04-08T19:00:07.036Z,4.60
2023-04-08T19:02:37.767Z,4.63
2023-04-08T19:05:07.411Z,4.25
2023-04-08T19:07:36.569Z,4.43
2023-04-08T19:10:06.913Z,3.70
2023-04-08T19:12:36.154Z,4.20
2023-04-08T19:15:05.486Z,4.30
2023-04-08T19:17:34.633Z,4.30
2023-04-08T19:20:05.668Z,4.53
2023-04-08T19:22:34.734Z,4.20
2023-04-08T19:25:03.718Z,4.53
2023-04-08T19:27:32.767Z,4.82
2023-04-08T19:30:02.024Z,4.25
2023-04-08T19:32:31.108Z,4.22
2023-04-08T19:35:00.109Z,5.20
2023-04-08T19:37:30.771Z,4.97
2023-04-08T19:39:59.705Z,4.43
2023-04-08T19:42:28.708Z,3.78
2023-04-08T19:44:58.243Z,4.70
2023-04-08T19:47:27.226Z,4.18
2023-04-08T19:49:56.188Z,4.40
2023-04-08T19:52:25.196Z,4.00
2023-04-08T19:54:55.925Z,3.60
2023-04-08T19:57:25.100Z,3.70
2023-04-08T19:59:55.155Z,4.03
2023-04-08T20:02:25.975Z,3.35
2023-04-08T20:04:55.099Z,4.22
2023-04-08T20:07:24.199Z,3.58
2023-04-08T20:09:55.047Z,3.60
2023-04-08T20:12:24.071Z,4.00
2023-04-08T20:14:53.496Z,3.58
2023-04-08T20:17:22.557Z,3.17
2023-04-08T20:19:51.617Z,4.13
2023-04-08T20:22:20.625Z,3.58
2023-04-08T20:24:49.957Z,3.75
2023-04-08T20:27:20.647Z,4.57
2023-04-08T20:29:49.658Z,4.85
2023-04-08T20:32:18.649Z,4.40
2023-04-08T20:34:47.656Z,4.20
2023-04-08T20:37:17.787Z,3.83
2023-04-08T20:39:47.253Z,4.00
2023-04-08T20:42:16.285Z,4.55
2023-04-08T20:44:48.215Z,4.10
2023-04-08T20:47:17.707Z,3.85
2023-04-08T20:49:47.144Z,3.90
2023-04-08T20:52:16.651Z,3.50
2023-04-08T20:54:45.620Z,4.47
2023-04-08T20:57:14.613Z,4.28
2023-04-08T20:59:43.742Z,4.55
2023-04-08T21:02:14.556Z,4.00
2023-04-08T21:04:43.568Z,3.80
2023-04-08T21:07:12.573Z,4.00
2023-04-08T21:09:41.848Z,4.13
2023-04-08T21:12:10.887Z,4.47
2023-04-08T21:14:39.930Z,3.83
2023-04-08T21:17:09.143Z,3.78
2023-04-08T21:19:40.095Z,4.03
2023-04-08T21:22:09.145Z,4.10
2023-04-08T21:24:38.792Z,4.00
2023-04-08T21:27:08.038Z,4.40
2023-04-08T21:29:37.113Z,4.30
2023-04-08T21:32:06.161Z,3.72
2023-04-08T21:34:35.120Z,4.25
2023-04-08T21:37:06.644Z,4.38
2023-04-08T21:39:35.641Z,3.58
2023-04-08T21:42:04.688Z,3.75
2023-04-08T21:44:34.180Z,3.78
2023-04-08T21:47:03.287Z,3.40
2023-04-08T21:49:32.368Z,4.05
2023-04-08T21:52:01.319Z,3.67
2023-04-08T21:54:32.010Z,3.83
2023-04-08T21:57:02.266Z,4.03
2023-04-08T21:59:31.386Z,4.63
2023-04-08T22:02:00.583Z,5.13
2023-04-08T22:04:29.791Z,4.72
2023-04-08T22:06:59.010Z,4.28
2023-04-08T22:09:28.534Z,4.15
2023-04-08T22:11:59.154Z,4.03
2023-04-08T22:14:28.137Z,5.00
2023-04-08T22:16:57.176Z,4.68
2023-04-08T22:19:26.216Z,5.43
2023-04-08T22:21:55.291Z,5.72
2023-04-08T22:24:24.474Z,7.47
2023-04-08T22:26:55.140Z,6.85
2023-04-08T22:29:25.856Z,7.03
2023-04-08T22:31:54.834Z,6.28
2023-04-08T22:34:24.053Z,6.47
2023-04-08T22:36:53.012Z,6.85
2023-04-08T22:39:22.021Z,6.13
2023-04-08T22:41:51.387Z,7.55
2023-04-08T22:44:20.446Z,7.10
2023-04-08T22:46:51.216Z,7.43
2023-04-08T22:49:20.232Z,6.80
2023-04-08T22:51:49.283Z,6.95
2023-04-08T22:54:19.066Z,7.45
2023-04-08T22:56:48.081Z,6.40
2023-04-08T22:59:17.107Z,6.95
2023-04-08T23:01:46.489Z,7.43
2023-04-08T23:04:17.187Z,7.25
2023-04-08T23:06:46.341Z,7.57
2023-04-08T23:09:15.441Z,6.22
2023-04-08T23:11:44.484Z,7.10
2023-04-08T23:14:13.655Z,6.28
2023-04-08T23:16:42.702Z,6.72
2023-04-08T23:19:12.297Z,6.78
2023-04-08T23:21:43.103Z,6.10
2023-04-08T23:24:12.132Z,6.43
2023-04-08T23:26:41.517Z,5.53
2023-04-08T23:29:11.496Z,5.53
2023-04-08T23:31:40.632Z,5.60
2023-04-08T23:34:09.697Z,5.32
2023-04-08T23:36:39.122Z,5.10
2023-04-08T23:39:09.769Z,5.53
2023-04-08T23:41:38.771Z,4.53
2023-04-08T23:44:08.137Z,4.90
2023-04-08T23:46:37.153Z,5.07
2023-04-08T23:49:06.154Z,4.85
2023-04-08T23:51:35.215Z,4.85
2023-04-08T23:54:04.194Z,4.30
2023-04-08T23:56:34.852Z,4.60
2023-04-08T23:59:03.843Z,3.78
